De Witt, Missouri
Current Conditions -  °F | °C
As of 7:55 PM on Monday 22 Dec 2014 (Local Time) from KVER Reporting Station
Light Rain Light Rain  
Wind Chill: 44°   Ceiling: 800
Heat Index: 47°   Visibility: 10mi
Dew Point: 47°   Wind: 7mph
Humidity: 100%   Direction: 230°SW
Pressure: 29.5"   Gusts: NA
Location:  39.38°N, 93.22°W
Report Text: KVER 230155Z AUTO 23006KT 10SM -RA OVC008 09/09 A2950 RMK AO2 P0001 T00850086
Loading
Personal Weather Stations






























Interactive Weather Map New forecast layout! Learn more

10-Day Weather Forecast

Advertisements
Track Severe Weather on mobile